sensor_id;sensor_type;location;lat;lon;timestamp;P1;durP1;ratioP1;P2;durP2;ratioP2
72325;SDS011;60278;47.980;18.780;2023-09-18T00:01:42;21.33;;;14.93;;
72325;SDS011;60278;47.980;18.780;2023-09-18T00:04:44;24.27;;;15.88;;
72325;SDS011;60278;47.980;18.780;2023-09-18T00:07:46;18.67;;;13.50;;
72325;SDS011;60278;47.980;18.780;2023-09-18T00:10:49;20.33;;;14.40;;
72325;SDS011;60278;47.980;18.780;2023-09-18T00:13:52;21.05;;;14.82;;
72325;SDS011;60278;47.980;18.780;2023-09-18T00:16:54;20.83;;;13.93;;
72325;SDS011;60278;47.980;18.780;2023-09-18T00:20:00;19.83;;;14.30;;
72325;SDS011;60278;47.980;18.780;2023-09-18T00:23:02;23.50;;;15.67;;
72325;SDS011;60278;47.980;18.780;2023-09-18T00:26:04;24.60;;;14.45;;
72325;SDS011;60278;47.980;18.780;2023-09-18T00:29:06;22.60;;;15.90;;
72325;SDS011;60278;47.980;18.780;2023-09-18T00:32:08;20.88;;;15.15;;
72325;SDS011;60278;47.980;18.780;2023-09-18T00:35:10;20.25;;;15.23;;
72325;SDS011;60278;47.980;18.780;2023-09-18T00:38:13;20.43;;;14.30;;
72325;SDS011;60278;47.980;18.780;2023-09-18T00:41:15;20.08;;;14.25;;
72325;SDS011;60278;47.980;18.780;2023-09-18T00:44:18;21.25;;;14.95;;
72325;SDS011;60278;47.980;18.780;2023-09-18T00:47:20;21.95;;;13.98;;
72325;SDS011;60278;47.980;18.780;2023-09-18T00:50:22;22.08;;;15.20;;
72325;SDS011;60278;47.980;18.780;2023-09-18T00:53:24;24.67;;;15.40;;
72325;SDS011;60278;47.980;18.780;2023-09-18T00:56:27;25.50;;;14.23;;
72325;SDS011;60278;47.980;18.780;2023-09-18T00:59:29;23.48;;;14.57;;
72325;SDS011;60278;47.980;18.780;2023-09-18T01:02:33;20.20;;;13.52;;
72325;SDS011;60278;47.980;18.780;2023-09-18T01:05:35;23.48;;;15.05;;
72325;SDS011;60278;47.980;18.780;2023-09-18T01:08:38;21.60;;;13.80;;
72325;SDS011;60278;47.980;18.780;2023-09-18T01:14:44;24.23;;;15.02;;
72325;SDS011;60278;47.980;18.780;2023-09-18T01:17:52;23.60;;;14.60;;
72325;SDS011;60278;47.980;18.780;2023-09-18T01:20:54;19.33;;;13.52;;
72325;SDS011;60278;47.980;18.780;2023-09-18T01:23:56;19.83;;;13.10;;
72325;SDS011;60278;47.980;18.780;2023-09-18T01:26:58;19.38;;;14.07;;
72325;SDS011;60278;47.980;18.780;2023-09-18T01:30:01;23.98;;;14.98;;
72325;SDS011;60278;47.980;18.780;2023-09-18T01:33:03;21.88;;;14.73;;
72325;SDS011;60278;47.980;18.780;2023-09-18T01:36:08;23.65;;;14.70;;
72325;SDS011;60278;47.980;18.780;2023-09-18T01:39:11;21.93;;;15.20;;
72325;SDS011;60278;47.980;18.780;2023-09-18T01:42:13;27.55;;;15.52;;
72325;SDS011;60278;47.980;18.780;2023-09-18T01:45:16;23.65;;;14.43;;
72325;SDS011;60278;47.980;18.780;2023-09-18T01:48:18;22.85;;;15.60;;
72325;SDS011;60278;47.980;18.780;2023-09-18T01:51:20;27.00;;;15.35;;
72325;SDS011;60278;47.980;18.780;2023-09-18T01:54:22;22.67;;;14.83;;
72325;SDS011;60278;47.980;18.780;2023-09-18T01:57:26;25.80;;;14.90;;
72325;SDS011;60278;47.980;18.780;2023-09-18T02:00:28;22.50;;;14.57;;
72325;SDS011;60278;47.980;18.780;2023-09-18T02:03:31;21.23;;;15.10;;
72325;SDS011;60278;47.980;18.780;2023-09-18T02:06:53;25.27;;;15.20;;
72325;SDS011;60278;47.980;18.780;2023-09-18T02:09:56;20.90;;;14.30;;
72325;SDS011;60278;47.980;18.780;2023-09-18T02:12:58;21.98;;;15.00;;
72325;SDS011;60278;47.980;18.780;2023-09-18T02:16:00;23.48;;;14.95;;
72325;SDS011;60278;47.980;18.780;2023-09-18T02:19:02;24.38;;;14.82;;
72325;SDS011;60278;47.980;18.780;2023-09-18T02:22:06;22.90;;;14.95;;
72325;SDS011;60278;47.980;18.780;2023-09-18T02:25:08;23.43;;;14.90;;
72325;SDS011;60278;47.980;18.780;2023-09-18T02:28:10;23.33;;;14.77;;
72325;SDS011;60278;47.980;18.780;2023-09-18T02:31:13;23.33;;;15.65;;
72325;SDS011;60278;47.980;18.780;2023-09-18T02:34:15;27.80;;;15.50;;
72325;SDS011;60278;47.980;18.780;2023-09-18T02:37:17;25.00;;;14.75;;
72325;SDS011;60278;47.980;18.780;2023-09-18T02:40:19;20.43;;;14.70;;
72325;SDS011;60278;47.980;18.780;2023-09-18T02:43:21;26.30;;;15.52;;
72325;SDS011;60278;47.980;18.780;2023-09-18T02:46:23;21.60;;;14.60;;
72325;SDS011;60278;47.980;18.780;2023-09-18T02:49:25;22.88;;;15.18;;
72325;SDS011;60278;47.980;18.780;2023-09-18T02:52:28;22.55;;;15.55;;
72325;SDS011;60278;47.980;18.780;2023-09-18T02:55:31;22.97;;;14.97;;
72325;SDS011;60278;47.980;18.780;2023-09-18T02:58:33;22.70;;;15.00;;
72325;SDS011;60278;47.980;18.780;2023-09-18T03:01:35;22.10;;;15.85;;
72325;SDS011;60278;47.980;18.780;2023-09-18T03:04:37;20.35;;;14.80;;
72325;SDS011;60278;47.980;18.780;2023-09-18T03:07:39;24.38;;;15.95;;
72325;SDS011;60278;47.980;18.780;2023-09-18T03:10:42;21.23;;;15.00;;
72325;SDS011;60278;47.980;18.780;2023-09-18T03:13:45;22.38;;;15.23;;
72325;SDS011;60278;47.980;18.780;2023-09-18T03:16:49;22.33;;;15.35;;
72325;SDS011;60278;47.980;18.780;2023-09-18T03:19:52;22.85;;;15.23;;
72325;SDS011;60278;47.980;18.780;2023-09-18T03:22:55;21.15;;;14.68;;
72325;SDS011;60278;47.980;18.780;2023-09-18T03:25:57;25.93;;;15.60;;
72325;SDS011;60278;47.980;18.780;2023-09-18T03:29:01;21.92;;;15.25;;
72325;SDS011;60278;47.980;18.780;2023-09-18T03:32:04;25.73;;;15.68;;
72325;SDS011;60278;47.980;18.780;2023-09-18T03:35:06;23.27;;;14.68;;
72325;SDS011;60278;47.980;18.780;2023-09-18T03:38:10;24.27;;;16.13;;
72325;SDS011;60278;47.980;18.780;2023-09-18T03:41:13;22.97;;;15.70;;
72325;SDS011;60278;47.980;18.780;2023-09-18T03:44:15;23.70;;;15.35;;
72325;SDS011;60278;47.980;18.780;2023-09-18T03:47:18;28.20;;;15.90;;
72325;SDS011;60278;47.980;18.780;2023-09-18T03:50:20;21.98;;;14.95;;
72325;SDS011;60278;47.980;18.780;2023-09-18T03:53:22;24.52;;;15.75;;
72325;SDS011;60278;47.980;18.780;2023-09-18T03:56:24;23.50;;;15.60;;
72325;SDS011;60278;47.980;18.780;2023-09-18T03:59:27;24.63;;;15.63;;
72325;SDS011;60278;47.980;18.780;2023-09-18T04:02:29;24.65;;;15.43;;
72325;SDS011;60278;47.980;18.780;2023-09-18T04:05:32;22.75;;;15.30;;
72325;SDS011;60278;47.980;18.780;2023-09-18T04:08:34;24.17;;;15.43;;
72325;SDS011;60278;47.980;18.780;2023-09-18T04:11:36;25.23;;;15.17;;
72325;SDS011;60278;47.980;18.780;2023-09-18T04:14:39;26.75;;;15.43;;
72325;SDS011;60278;47.980;18.780;2023-09-18T04:17:41;26.77;;;16.17;;
72325;SDS011;60278;47.980;18.780;2023-09-18T04:20:43;27.00;;;16.23;;
72325;SDS011;60278;47.980;18.780;2023-09-18T04:23:45;29.42;;;16.02;;
72325;SDS011;60278;47.980;18.780;2023-09-18T04:26:48;25.67;;;15.00;;
72325;SDS011;60278;47.980;18.780;2023-09-18T04:29:52;25.17;;;15.20;;
72325;SDS011;60278;47.980;18.780;2023-09-18T04:32:54;21.50;;;14.27;;
72325;SDS011;60278;47.980;18.780;2023-09-18T04:35:57;26.88;;;14.70;;
72325;SDS011;60278;47.980;18.780;2023-09-18T04:38:59;22.60;;;14.63;;
72325;SDS011;60278;47.980;18.780;2023-09-18T04:42:01;23.73;;;14.33;;
72325;SDS011;60278;47.980;18.780;2023-09-18T04:45:06;18.63;;;11.45;;
72325;SDS011;60278;47.980;18.780;2023-09-18T04:48:08;26.13;;;12.45;;
72325;SDS011;60278;47.980;18.780;2023-09-18T04:51:11;20.23;;;11.93;;
72325;SDS011;60278;47.980;18.780;2023-09-18T04:54:14;24.67;;;13.90;;
72325;SDS011;60278;47.980;18.780;2023-09-18T04:57:17;19.50;;;13.67;;
72325;SDS011;60278;47.980;18.780;2023-09-18T05:00:20;18.52;;;12.48;;
72325;SDS011;60278;47.980;18.780;2023-09-18T05:03:26;20.25;;;13.50;;
72325;SDS011;60278;47.980;18.780;2023-09-18T05:06:32;18.15;;;11.77;;
72325;SDS011;60278;47.980;18.780;2023-09-18T05:09:34;22.42;;;12.35;;
72325;SDS011;60278;47.980;18.780;2023-09-18T05:12:39;18.87;;;11.67;;
72325;SDS011;60278;47.980;18.780;2023-09-18T05:15:42;29.23;;;12.15;;
72325;SDS011;60278;47.980;18.780;2023-09-18T05:18:44;24.80;;;12.65;;
72325;SDS011;60278;47.980;18.780;2023-09-18T05:21:46;15.88;;;10.10;;
72325;SDS011;60278;47.980;18.780;2023-09-18T05:24:50;21.02;;;12.70;;
72325;SDS011;60278;47.980;18.780;2023-09-18T05:27:53;23.77;;;10.37;;
72325;SDS011;60278;47.980;18.780;2023-09-18T05:30:58;21.58;;;10.40;;
72325;SDS011;60278;47.980;18.780;2023-09-18T05:34:00;21.80;;;10.18;;
72325;SDS011;60278;47.980;18.780;2023-09-18T05:37:02;22.98;;;10.30;;
72325;SDS011;60278;47.980;18.780;2023-09-18T05:40:06;39.05;;;10.40;;
72325;SDS011;60278;47.980;18.780;2023-09-18T05:43:10;22.73;;;9.23;;
72325;SDS011;60278;47.980;18.780;2023-09-18T05:46:12;34.40;;;9.18;;
72325;SDS011;60278;47.980;18.780;2023-09-18T05:49:14;20.63;;;9.07;;
72325;SDS011;60278;47.980;18.780;2023-09-18T05:52:16;23.88;;;8.57;;
72325;SDS011;60278;47.980;18.780;2023-09-18T05:55:19;27.35;;;9.63;;
72325;SDS011;60278;47.980;18.780;2023-09-18T05:58:21;16.20;;;8.23;;
72325;SDS011;60278;47.980;18.780;2023-09-18T06:01:26;13.30;;;8.10;;
72325;SDS011;60278;47.980;18.780;2023-09-18T06:04:29;18.90;;;8.45;;
72325;SDS011;60278;47.980;18.780;2023-09-18T06:07:32;13.70;;;8.40;;
72325;SDS011;60278;47.980;18.780;2023-09-18T06:10:34;14.90;;;8.98;;
72325;SDS011;60278;47.980;18.780;2023-09-18T06:13:36;20.57;;;8.37;;
72325;SDS011;60278;47.980;18.780;2023-09-18T06:16:39;11.90;;;8.07;;
72325;SDS011;60278;47.980;18.780;2023-09-18T06:19:41;18.33;;;8.18;;
72325;SDS011;60278;47.980;18.780;2023-09-18T06:22:44;23.15;;;7.82;;
72325;SDS011;60278;47.980;18.780;2023-09-18T06:25:46;21.90;;;8.52;;
72325;SDS011;60278;47.980;18.780;2023-09-18T06:28:48;25.57;;;7.73;;
72325;SDS011;60278;47.980;18.780;2023-09-18T06:31:53;23.60;;;7.55;;
72325;SDS011;60278;47.980;18.780;2023-09-18T06:34:55;15.93;;;8.00;;
72325;SDS011;60278;47.980;18.780;2023-09-18T06:37:59;32.75;;;8.52;;
72325;SDS011;60278;47.980;18.780;2023-09-18T06:41:02;36.92;;;8.50;;
72325;SDS011;60278;47.980;18.780;2023-09-18T06:44:04;24.97;;;9.37;;
72325;SDS011;60278;47.980;18.780;2023-09-18T06:47:07;12.07;;;7.40;;
72325;SDS011;60278;47.980;18.780;2023-09-18T06:50:09;14.25;;;7.55;;
72325;SDS011;60278;47.980;18.780;2023-09-18T06:53:14;29.17;;;6.95;;
72325;SDS011;60278;47.980;18.780;2023-09-18T06:56:16;14.07;;;7.28;;
72325;SDS011;60278;47.980;18.780;2023-09-18T06:59:18;53.77;;;9.27;;
72325;SDS011;60278;47.980;18.780;2023-09-18T07:02:20;20.90;;;7.20;;
72325;SDS011;60278;47.980;18.780;2023-09-18T07:05:22;18.42;;;7.22;;
72325;SDS011;60278;47.980;18.780;2023-09-18T07:08:24;20.73;;;7.32;;
72325;SDS011;60278;47.980;18.780;2023-09-18T07:11:27;20.55;;;7.72;;
72325;SDS011;60278;47.980;18.780;2023-09-18T07:14:29;25.30;;;8.03;;
72325;SDS011;60278;47.980;18.780;2023-09-18T07:17:31;31.42;;;7.75;;
72325;SDS011;60278;47.980;18.780;2023-09-18T07:20:34;31.35;;;8.25;;
72325;SDS011;60278;47.980;18.780;2023-09-18T07:23:39;14.57;;;7.50;;
72325;SDS011;60278;47.980;18.780;2023-09-18T07:26:43;25.92;;;7.97;;
72325;SDS011;60278;47.980;18.780;2023-09-18T07:29:45;20.20;;;7.10;;
72325;SDS011;60278;47.980;18.780;2023-09-18T07:32:47;13.07;;;7.95;;
72325;SDS011;60278;47.980;18.780;2023-09-18T07:35:50;18.73;;;7.20;;
72325;SDS011;60278;47.980;18.780;2023-09-18T07:38:54;18.38;;;7.03;;
72325;SDS011;60278;47.980;18.780;2023-09-18T07:41:58;24.65;;;7.75;;
72325;SDS011;60278;47.980;18.780;2023-09-18T07:45:00;15.07;;;7.57;;
72325;SDS011;60278;47.980;18.780;2023-09-18T07:48:02;43.38;;;8.45;;
72325;SDS011;60278;47.980;18.780;2023-09-18T07:51:04;17.23;;;7.63;;
72325;SDS011;60278;47.980;18.780;2023-09-18T07:54:07;16.27;;;7.80;;
72325;SDS011;60278;47.980;18.780;2023-09-18T07:57:09;16.63;;;7.47;;
72325;SDS011;60278;47.980;18.780;2023-09-18T08:00:11;17.10;;;6.73;;
72325;SDS011;60278;47.980;18.780;2023-09-18T08:03:14;13.40;;;7.35;;
72325;SDS011;60278;47.980;18.780;2023-09-18T08:06:17;16.85;;;7.70;;
72325;SDS011;60278;47.980;18.780;2023-09-18T08:09:21;25.60;;;7.85;;
72325;SDS011;60278;47.980;18.780;2023-09-18T08:12:23;28.55;;;7.65;;
72325;SDS011;60278;47.980;18.780;2023-09-18T08:15:25;14.97;;;7.10;;
72325;SDS011;60278;47.980;18.780;2023-09-18T08:18:27;11.35;;;6.85;;
72325;SDS011;60278;47.980;18.780;2023-09-18T08:21:31;13.90;;;6.40;;
72325;SDS011;60278;47.980;18.780;2023-09-18T08:24:33;14.45;;;7.40;;
72325;SDS011;60278;47.980;18.780;2023-09-18T08:27:41;13.38;;;7.18;;
72325;SDS011;60278;47.980;18.780;2023-09-18T08:30:45;10.57;;;6.83;;
72325;SDS011;60278;47.980;18.780;2023-09-18T08:33:49;13.07;;;7.40;;
72325;SDS011;60278;47.980;18.780;2023-09-18T08:36:52;17.15;;;6.93;;
72325;SDS011;60278;47.980;18.780;2023-09-18T08:39:54;12.77;;;7.18;;
72325;SDS011;60278;47.980;18.780;2023-09-18T08:42:56;10.80;;;7.53;;
72325;SDS011;60278;47.980;18.780;2023-09-18T08:46:01;14.37;;;7.37;;
72325;SDS011;60278;47.980;18.780;2023-09-18T08:49:05;13.43;;;7.88;;
72325;SDS011;60278;47.980;18.780;2023-09-18T08:52:08;21.58;;;7.28;;
72325;SDS011;60278;47.980;18.780;2023-09-18T08:55:10;10.32;;;7.20;;
72325;SDS011;60278;47.980;18.780;2023-09-18T08:58:13;12.63;;;7.95;;
72325;SDS011;60278;47.980;18.780;2023-09-18T09:01:16;17.87;;;7.53;;
72325;SDS011;60278;47.980;18.780;2023-09-18T09:04:18;11.95;;;7.40;;
72325;SDS011;60278;47.980;18.780;2023-09-18T09:07:21;12.63;;;8.13;;
72325;SDS011;60278;47.980;18.780;2023-09-18T09:10:23;11.07;;;7.53;;
72325;SDS011;60278;47.980;18.780;2023-09-18T09:13:27;15.27;;;7.70;;
72325;SDS011;60278;47.980;18.780;2023-09-18T09:16:47;14.10;;;7.67;;
72325;SDS011;60278;47.980;18.780;2023-09-18T09:19:50;12.85;;;7.78;;
72325;SDS011;60278;47.980;18.780;2023-09-18T09:22:52;11.60;;;7.88;;
72325;SDS011;60278;47.980;18.780;2023-09-18T09:26:23;11.18;;;7.03;;
72325;SDS011;60278;47.980;18.780;2023-09-18T09:29:25;12.05;;;7.28;;
72325;SDS011;60278;47.980;18.780;2023-09-18T09:32:29;11.57;;;7.07;;
72325;SDS011;60278;47.980;18.780;2023-09-18T09:35:34;14.40;;;7.63;;
72325;SDS011;60278;47.980;18.780;2023-09-18T09:38:37;13.95;;;8.35;;
72325;SDS011;60278;47.980;18.780;2023-09-18T09:41:44;17.90;;;8.10;;
72325;SDS011;60278;47.980;18.780;2023-09-18T09:44:47;14.80;;;7.95;;
72325;SDS011;60278;47.980;18.780;2023-09-18T09:47:53;12.63;;;7.57;;
72325;SDS011;60278;47.980;18.780;2023-09-18T09:50:59;11.35;;;7.57;;
72325;SDS011;60278;47.980;18.780;2023-09-18T09:54:02;13.90;;;7.32;;
72325;SDS011;60278;47.980;18.780;2023-09-18T09:57:05;10.38;;;7.65;;
72325;SDS011;60278;47.980;18.780;2023-09-18T10:00:07;11.30;;;7.32;;
72325;SDS011;60278;47.980;18.780;2023-09-18T10:03:27;13.27;;;7.30;;
72325;SDS011;60278;47.980;18.780;2023-09-18T10:06:30;11.18;;;7.95;;
72325;SDS011;60278;47.980;18.780;2023-09-18T10:09:35;14.65;;;8.07;;
72325;SDS011;60278;47.980;18.780;2023-09-18T10:12:37;9.85;;;7.35;;
72325;SDS011;60278;47.980;18.780;2023-09-18T10:15:40;12.25;;;7.47;;
72325;SDS011;60278;47.980;18.780;2023-09-18T10:19:04;13.37;;;7.73;;
72325;SDS011;60278;47.980;18.780;2023-09-18T10:25:24;12.80;;;6.82;;
72325;SDS011;60278;47.980;18.780;2023-09-18T10:28:33;12.65;;;7.63;;
72325;SDS011;60278;47.980;18.780;2023-09-18T10:31:37;11.02;;;7.70;;
72325;SDS011;60278;47.980;18.780;2023-09-18T10:34:46;11.33;;;7.70;;
72325;SDS011;60278;47.980;18.780;2023-09-18T10:37:51;11.75;;;8.13;;
72325;SDS011;60278;47.980;18.780;2023-09-18T10:41:02;12.40;;;7.95;;
72325;SDS011;60278;47.980;18.780;2023-09-18T10:44:20;12.07;;;7.15;;
72325;SDS011;60278;47.980;18.780;2023-09-18T10:47:26;9.60;;;7.50;;
72325;SDS011;60278;47.980;18.780;2023-09-18T10:50:31;10.73;;;7.00;;
72325;SDS011;60278;47.980;18.780;2023-09-18T10:53:34;11.05;;;7.13;;
72325;SDS011;60278;47.980;18.780;2023-09-18T10:56:36;15.05;;;7.80;;
72325;SDS011;60278;47.980;18.780;2023-09-18T10:59:45;10.40;;;7.85;;
72325;SDS011;60278;47.980;18.780;2023-09-18T11:03:33;13.60;;;8.27;;
72325;SDS011;60278;47.980;18.780;2023-09-18T11:06:10;14.03;;;7.63;;
72325;SDS011;60278;47.980;18.780;2023-09-18T11:09:18;15.13;;;7.65;;
72325;SDS011;60278;47.980;18.780;2023-09-18T11:12:21;11.95;;;8.63;;
72325;SDS011;60278;47.980;18.780;2023-09-18T11:15:44;14.90;;;8.23;;
72325;SDS011;60278;47.980;18.780;2023-09-18T11:18:47;17.75;;;8.35;;
72325;SDS011;60278;47.980;18.780;2023-09-18T11:21:51;12.47;;;8.17;;
72325;SDS011;60278;47.980;18.780;2023-09-18T11:28:30;12.02;;;8.10;;
72325;SDS011;60278;47.980;18.780;2023-09-18T11:34:51;14.45;;;7.38;;
72325;SDS011;60278;47.980;18.780;2023-09-18T11:38:08;11.83;;;8.60;;
72325;SDS011;60278;47.980;18.780;2023-09-18T11:41:22;12.25;;;8.23;;
72325;SDS011;60278;47.980;18.780;2023-09-18T11:47:29;11.82;;;7.57;;
72325;SDS011;60278;47.980;18.780;2023-09-18T11:50:34;13.73;;;8.70;;
72325;SDS011;60278;47.980;18.780;2023-09-18T11:53:37;14.80;;;7.67;;
72325;SDS011;60278;47.980;18.780;2023-09-18T11:56:42;18.15;;;9.23;;
72325;SDS011;60278;47.980;18.780;2023-09-18T11:59:45;12.85;;;8.38;;
72325;SDS011;60278;47.980;18.780;2023-09-18T12:02:48;9.85;;;7.75;;
72325;SDS011;60278;47.980;18.780;2023-09-18T12:05:51;11.55;;;8.45;;
72325;SDS011;60278;47.980;18.780;2023-09-18T12:08:54;14.10;;;7.73;;
72325;SDS011;60278;47.980;18.780;2023-09-18T12:11:59;13.77;;;8.52;;
72325;SDS011;60278;47.980;18.780;2023-09-18T12:15:05;13.68;;;8.00;;
72325;SDS011;60278;47.980;18.780;2023-09-18T12:18:09;11.95;;;9.00;;
72325;SDS011;60278;47.980;18.780;2023-09-18T12:21:14;18.13;;;9.00;;
72325;SDS011;60278;47.980;18.780;2023-09-18T12:24:24;13.17;;;8.50;;
72325;SDS011;60278;47.980;18.780;2023-09-18T12:27:26;11.35;;;7.68;;
72325;SDS011;60278;47.980;18.780;2023-09-18T12:30:29;15.48;;;8.15;;
72325;SDS011;60278;47.980;18.780;2023-09-18T12:33:34;12.90;;;8.50;;
72325;SDS011;60278;47.980;18.780;2023-09-18T12:36:37;15.02;;;8.98;;
72325;SDS011;60278;47.980;18.780;2023-09-18T12:39:39;14.93;;;8.70;;
72325;SDS011;60278;47.980;18.780;2023-09-18T12:42:41;11.07;;;8.48;;
72325;SDS011;60278;47.980;18.780;2023-09-18T12:45:43;13.70;;;9.18;;
72325;SDS011;60278;47.980;18.780;2023-09-18T12:48:47;14.55;;;8.60;;
72325;SDS011;60278;47.980;18.780;2023-09-18T12:51:56;12.82;;;8.23;;
72325;SDS011;60278;47.980;18.780;2023-09-18T12:54:59;12.20;;;8.30;;
72325;SDS011;60278;47.980;18.780;2023-09-18T12:58:03;11.68;;;8.43;;
72325;SDS011;60278;47.980;18.780;2023-09-18T13:01:10;13.82;;;8.68;;
72325;SDS011;60278;47.980;18.780;2023-09-18T13:04:13;10.88;;;8.80;;
72325;SDS011;60278;47.980;18.780;2023-09-18T13:07:16;14.07;;;9.02;;
72325;SDS011;60278;47.980;18.780;2023-09-18T13:10:19;13.60;;;9.47;;
72325;SDS011;60278;47.980;18.780;2023-09-18T13:13:21;13.38;;;9.07;;
72325;SDS011;60278;47.980;18.780;2023-09-18T13:16:24;16.05;;;9.43;;
72325;SDS011;60278;47.980;18.780;2023-09-18T13:19:26;12.45;;;9.15;;
72325;SDS011;60278;47.980;18.780;2023-09-18T13:22:29;14.10;;;9.50;;
72325;SDS011;60278;47.980;18.780;2023-09-18T13:25:32;11.93;;;8.77;;
72325;SDS011;60278;47.980;18.780;2023-09-18T13:28:39;17.63;;;9.30;;
72325;SDS011;60278;47.980;18.780;2023-09-18T13:31:42;17.80;;;8.57;;
72325;SDS011;60278;47.980;18.780;2023-09-18T13:34:44;13.85;;;9.02;;
72325;SDS011;60278;47.980;18.780;2023-09-18T13:37:47;11.98;;;9.85;;
72325;SDS011;60278;47.980;18.780;2023-09-18T13:40:49;17.33;;;8.93;;
72325;SDS011;60278;47.980;18.780;2023-09-18T13:43:51;18.92;;;9.30;;
72325;SDS011;60278;47.980;18.780;2023-09-18T13:46:57;15.57;;;8.85;;
72325;SDS011;60278;47.980;18.780;2023-09-18T13:49:59;12.50;;;9.38;;
72325;SDS011;60278;47.980;18.780;2023-09-18T13:53:02;13.20;;;8.70;;
72325;SDS011;60278;47.980;18.780;2023-09-18T13:56:06;13.17;;;8.93;;
72325;SDS011;60278;47.980;18.780;2023-09-18T13:59:08;14.18;;;9.32;;
72325;SDS011;60278;47.980;18.780;2023-09-18T14:02:12;17.67;;;9.27;;
72325;SDS011;60278;47.980;18.780;2023-09-18T14:05:14;15.75;;;9.32;;
72325;SDS011;60278;47.980;18.780;2023-09-18T14:08:19;11.88;;;9.10;;
72325;SDS011;60278;47.980;18.780;2023-09-18T14:11:22;12.77;;;9.30;;
72325;SDS011;60278;47.980;18.780;2023-09-18T14:14:28;14.05;;;9.30;;
72325;SDS011;60278;47.980;18.780;2023-09-18T14:17:31;12.23;;;9.27;;
72325;SDS011;60278;47.980;18.780;2023-09-18T14:20:33;11.90;;;8.98;;
72325;SDS011;60278;47.980;18.780;2023-09-18T14:23:35;17.35;;;9.35;;
72325;SDS011;60278;47.980;18.780;2023-09-18T14:26:39;15.43;;;8.83;;
72325;SDS011;60278;47.980;18.780;2023-09-18T14:29:44;13.80;;;9.23;;
72325;SDS011;60278;47.980;18.780;2023-09-18T14:32:46;12.60;;;8.95;;
72325;SDS011;60278;47.980;18.780;2023-09-18T14:35:49;11.20;;;8.70;;
72325;SDS011;60278;47.980;18.780;2023-09-18T14:38:52;17.33;;;9.35;;
72325;SDS011;60278;47.980;18.780;2023-09-18T14:41:54;16.33;;;9.60;;
72325;SDS011;60278;47.980;18.780;2023-09-18T14:44:57;14.20;;;9.20;;
72325;SDS011;60278;47.980;18.780;2023-09-18T14:47:59;15.05;;;8.60;;
72325;SDS011;60278;47.980;18.780;2023-09-18T14:51:02;14.30;;;8.77;;
72325;SDS011;60278;47.980;18.780;2023-09-18T14:54:04;12.90;;;8.82;;
72325;SDS011;60278;47.980;18.780;2023-09-18T14:57:08;14.80;;;8.70;;
72325;SDS011;60278;47.980;18.780;2023-09-18T15:00:10;14.55;;;9.00;;
72325;SDS011;60278;47.980;18.780;2023-09-18T15:03:15;16.50;;;8.35;;
72325;SDS011;60278;47.980;18.780;2023-09-18T15:06:17;12.35;;;8.65;;
72325;SDS011;60278;47.980;18.780;2023-09-18T15:09:19;13.63;;;8.77;;
72325;SDS011;60278;47.980;18.780;2023-09-18T15:12:21;11.67;;;8.53;;
72325;SDS011;60278;47.980;18.780;2023-09-18T15:15:24;13.40;;;8.45;;
72325;SDS011;60278;47.980;18.780;2023-09-18T15:18:26;10.82;;;8.70;;
72325;SDS011;60278;47.980;18.780;2023-09-18T15:21:28;15.88;;;9.30;;
72325;SDS011;60278;47.980;18.780;2023-09-18T15:24:30;14.73;;;9.10;;
72325;SDS011;60278;47.980;18.780;2023-09-18T15:27:32;18.17;;;8.53;;
72325;SDS011;60278;47.980;18.780;2023-09-18T15:30:35;13.27;;;8.88;;
72325;SDS011;60278;47.980;18.780;2023-09-18T15:33:37;18.83;;;9.13;;
72325;SDS011;60278;47.980;18.780;2023-09-18T15:36:40;15.13;;;9.32;;
72325;SDS011;60278;47.980;18.780;2023-09-18T15:39:43;14.95;;;8.90;;
72325;SDS011;60278;47.980;18.780;2023-09-18T15:42:45;15.57;;;8.77;;
72325;SDS011;60278;47.980;18.780;2023-09-18T15:45:49;18.30;;;8.35;;
72325;SDS011;60278;47.980;18.780;2023-09-18T15:48:51;16.63;;;8.43;;
72325;SDS011;60278;47.980;18.780;2023-09-18T15:51:53;13.07;;;9.65;;
72325;SDS011;60278;47.980;18.780;2023-09-18T15:54:55;14.48;;;9.15;;
72325;SDS011;60278;47.980;18.780;2023-09-18T15:57:58;11.77;;;8.63;;
72325;SDS011;60278;47.980;18.780;2023-09-18T16:01:00;14.40;;;8.30;;
72325;SDS011;60278;47.980;18.780;2023-09-18T16:04:04;11.70;;;8.45;;
72325;SDS011;60278;47.980;18.780;2023-09-18T16:07:07;42.03;;;9.43;;
72325;SDS011;60278;47.980;18.780;2023-09-18T16:10:14;17.10;;;8.73;;
72325;SDS011;60278;47.980;18.780;2023-09-18T16:13:16;15.57;;;8.03;;
72325;SDS011;60278;47.980;18.780;2023-09-18T16:16:19;16.17;;;8.90;;
72325;SDS011;60278;47.980;18.780;2023-09-18T16:19:22;14.82;;;8.55;;
72325;SDS011;60278;47.980;18.780;2023-09-18T16:22:25;10.32;;;8.25;;
72325;SDS011;60278;47.980;18.780;2023-09-18T16:25:28;12.07;;;8.48;;
72325;SDS011;60278;47.980;18.780;2023-09-18T16:28:30;14.13;;;8.10;;
72325;SDS011;60278;47.980;18.780;2023-09-18T16:31:33;14.15;;;8.65;;
72325;SDS011;60278;47.980;18.780;2023-09-18T16:34:35;15.25;;;7.90;;
72325;SDS011;60278;47.980;18.780;2023-09-18T16:37:38;12.38;;;8.07;;
72325;SDS011;60278;47.980;18.780;2023-09-18T16:40:42;12.30;;;8.13;;
72325;SDS011;60278;47.980;18.780;2023-09-18T16:43:44;12.90;;;8.10;;
72325;SDS011;60278;47.980;18.780;2023-09-18T16:46:46;16.02;;;7.65;;
72325;SDS011;60278;47.980;18.780;2023-09-18T16:49:48;41.92;;;9.10;;
72325;SDS011;60278;47.980;18.780;2023-09-18T16:52:50;12.35;;;7.90;;
72325;SDS011;60278;47.980;18.780;2023-09-18T16:55:53;13.60;;;8.32;;
72325;SDS011;60278;47.980;18.780;2023-09-18T16:58:55;13.60;;;8.53;;
72325;SDS011;60278;47.980;18.780;2023-09-18T17:01:57;14.55;;;8.32;;
72325;SDS011;60278;47.980;18.780;2023-09-18T17:04:59;13.77;;;7.68;;
72325;SDS011;60278;47.980;18.780;2023-09-18T17:08:02;14.10;;;7.85;;
72325;SDS011;60278;47.980;18.780;2023-09-18T17:11:08;16.45;;;8.55;;
72325;SDS011;60278;47.980;18.780;2023-09-18T17:14:10;13.97;;;7.70;;
72325;SDS011;60278;47.980;18.780;2023-09-18T17:17:12;13.85;;;8.27;;
72325;SDS011;60278;47.980;18.780;2023-09-18T17:20:14;13.13;;;7.85;;
72325;SDS011;60278;47.980;18.780;2023-09-18T17:23:18;12.75;;;7.57;;
72325;SDS011;60278;47.980;18.780;2023-09-18T17:26:20;16.27;;;8.07;;
72325;SDS011;60278;47.980;18.780;2023-09-18T17:29:24;16.67;;;7.87;;
72325;SDS011;60278;47.980;18.780;2023-09-18T17:32:26;17.77;;;8.18;;
72325;SDS011;60278;47.980;18.780;2023-09-18T17:35:28;17.40;;;8.80;;
72325;SDS011;60278;47.980;18.780;2023-09-18T17:38:30;14.07;;;7.72;;
72325;SDS011;60278;47.980;18.780;2023-09-18T17:41:32;15.57;;;8.52;;
72325;SDS011;60278;47.980;18.780;2023-09-18T17:44:34;15.17;;;7.77;;
72325;SDS011;60278;47.980;18.780;2023-09-18T17:47:37;13.48;;;7.65;;
72325;SDS011;60278;47.980;18.780;2023-09-18T17:50:41;12.07;;;8.25;;
72325;SDS011;60278;47.980;18.780;2023-09-18T17:53:44;14.27;;;8.43;;
72325;SDS011;60278;47.980;18.780;2023-09-18T17:56:46;16.85;;;8.10;;
72325;SDS011;60278;47.980;18.780;2023-09-18T17:59:48;16.93;;;7.57;;
72325;SDS011;60278;47.980;18.780;2023-09-18T18:02:53;11.25;;;8.30;;
72325;SDS011;60278;47.980;18.780;2023-09-18T18:05:55;13.52;;;8.00;;